Home > Products > Valid Products > TAF

000
FTUS45 KTFX 250130 AAA
TAFHLN
TAF AMD
KHLN 250130Z 2502/2524 26013KT P6SM -SHRA SCT030 BKN050
      TEMPO 2502/2506 5SM -RA BR BKN025
     FM250900 28009KT P6SM SCT015 BKN035
     FM251700 28007KT P6SM SCT040 BKN070=



000
FTUS45 KTFX 242339
TAFHLN
TAF
KHLN 242339Z 2500/2524 23007KT P6SM -SHRA SCT025 BKN045
     FM250200 28008KT P6SM -RA SCT020 BKN040
      TEMPO 2504/2507 2SM -SNRA BR BKN015
     FM250900 28009KT P6SM SCT015 BKN035
     FM251700 28007KT P6SM SCT040 BKN070=



000
FTUS45 KTFX 242339
TAFHVR
TAF
KHVR 242339Z 2500/2524 28006KT P6SM SCT070 BKN100
     FM250100 31006KT P6SM VCSH SCT030 BKN060
      TEMPO 2502/2506 -RA BKN030
     FM250600 29008KT P6SM -RA SCT015 BKN025
     FM251500 26010KT P6SM SCT030 BKN050=



000
FTUS45 KTFX 242339
TAFCTB
TAF
KCTB 242339Z 2500/2524 26014G25KT P6SM SCT070 BKN120
     FM250200 27012KT P6SM SCT080 BKN150
     FM251800 35010G17KT P6SM SCT060 BKN100=



000
FTUS45 KTFX 242339
TAFGTF
TAF
KGTF 242339Z 2500/2524 33008KT P6SM SCT020 BKN040
      TEMPO 2500/2503 -SHRA BKN020
     FM250400 24006KT P6SM -SHRA SCT020 BKN040
     FM250700 22006KT P6SM SCT025 BKN070
     FM251500 25010KT P6SM SCT040 BKN080
     FM252100 03007KT P6SM SCT060 BKN100=



000
FTUS45 KTFX 242339
TAFLWT
TAF
KLWT 242339Z 2500/2524 01010KT P6SM VCSH SCT050 BKN100
      TEMPO 2501/2504 -RA BKN030
     FM250400 29008KT P6SM -RA SCT015 BKN025
     FM251400 30010KT P6SM SCT030 BKN050=



000
FTUS45 KTFX 242339
TAFBZN
TAF
KBZN 242339Z 2500/2524 27008KT P6SM SCT050 BKN090
      TEMPO 2501/2504 -SHRA BKN040
     FM250500 26006KT P6SM VCSH SCT020 BKN040
      TEMPO 2506/2509 2SM -SHSNRA BR BKN025
     FM251200 VRB05KT P6SM SCT020 BKN040
     FM251600 VRB05KT P6SM SCT040 BKN080=



000
FTUS45 KTFX 242339
TAFGTF
TAF
KGTF 242339Z 2500/2524 33008KT P6SM SCT020 BKN040
      TEMPO 2500/2503 -SHRA BKN020
     FM250400 24006KT P6SM -SHRA SCT020 BKN040
     FM250700 22006KT P6SM SCT025 BKN070
     FM251500 25010KT P6SM SCT040 BKN080
     FM252100 03007KT P6SM SCT060 BKN100=



000
FTUS45 KTFX 242339
TAFBZN
TAF
KBZN 242339Z 2500/2524 27008KT P6SM SCT050 BKN090
      TEMPO 2501/2504 -SHRA BKN040
     FM250500 26006KT P6SM VCSH SCT020 BKN040
      TEMPO 2506/2509 2SM -SHSNRA BR BKN025
     FM251200 VRB05KT P6SM SCT020 BKN040
     FM251600 VRB05KT P6SM SCT040 BKN080=



000
FTUS45 KTFX 242339
TAFHLN
TAF
KHLN 242339Z 2500/2524 23007KT P6SM -SHRA SCT025 BKN045
     FM250200 28008KT P6SM -RA SCT020 BKN040
      TEMPO 2504/2507 2SM -SNRA BR BKN015
     FM250900 28009KT P6SM SCT015 BKN035
     FM251700 28007KT P6SM SCT040 BKN070=



000
FTUS45 KTFX 242339
TAFHVR
TAF
KHVR 242339Z 2500/2524 28006KT P6SM SCT070 BKN100
     FM250100 31006KT P6SM VCSH SCT030 BKN060
      TEMPO 2502/2506 -RA BKN030
     FM250600 29008KT P6SM -RA SCT015 BKN025
     FM251500 26010KT P6SM SCT030 BKN050=



000
FTUS45 KTFX 242339
TAFCTB
TAF
KCTB 242339Z 2500/2524 26014G25KT P6SM SCT070 BKN120
     FM250200 27012KT P6SM SCT080 BKN150
     FM251800 35010G17KT P6SM SCT060 BKN100=



000
FTUS45 KTFX 242339
TAFLWT
TAF
KLWT 242339Z 2500/2524 01010KT P6SM VCSH SCT050 BKN100
      TEMPO 2501/2504 -RA BKN030
     FM250400 29008KT P6SM -RA SCT015 BKN025
     FM251400 30010KT P6SM SCT030 BKN050=



000
FTUS45 KTFX 242220 AAA
TAFGTF
TAF AMD
KGTF 242220Z 2422/2518 12008KT P6SM -RA SCT040 BKN060
     FM251000 22006KT P6SM SCT025 BKN070=



000
FTUS45 KTFX 242220 AAA
TAFGTF
TAF AMD
KGTF 242220Z 2422/2518 12008KT P6SM -RA SCT040 BKN060
     FM251000 22006KT P6SM SCT025 BKN070=



000
FTUS45 KTFX 241737
TAFLWT
TAF
KLWT 241737Z 2418/2518 29006KT P6SM VCSH SCT060 OVC100
      TEMPO 2421/2501 VRB15G35KT -TSRA SCT045CB BKN060
     FM250100 31010KT P6SM -SHRA OVC045
      TEMPO 2501/2503 VRB15G35KT 5SM -TSRA SCT030CB OVC035
     FM250300 28010KT P6SM -RA OVC030
     FM250600 29010KT 1SM -SN OVC008
     FM251300 29006KT P6SM SCT025 OVC045=



000
FTUS45 KTFX 241737
TAFBZN
TAF
KBZN 241737Z 2418/2518 VRB06KT P6SM OVC070
     FM242100 VRB06KT P6SM VCTS SCT035CB OVC070
      TEMPO 2422/2502 6SM -TSRA SCT035CB OVC045
     FM250200 31008KT P6SM -RA OVC035
      TEMPO 2503/2506 5SM -SNRA OVC015
     FM250600 26006KT 3/4SM -SN OVC008
     FM251200 VRB05KT P6SM OVC015=



000
FTUS45 KTFX 241737
TAFHVR
TAF
KHVR 241737Z 2418/2518 28006KT P6SM OVC080
     FM250100 31006KT P6SM VCSH OVC040
      TEMPO 2502/2506 -SHRA OVC030
     FM250600 29008KT P6SM -RA OVC025
     FM251500 26010KT P6SM SCT030 BKN045=



000
FTUS45 KTFX 241737
TAFCTB
TAF
KCTB 241737Z 2418/2518 26014G25KT P6SM SCT060 OVC080
     FM250100 27012KT P6SM SCT080 OVC180=



000
FTUS45 KTFX 241737
TAFGTF
TAF
KGTF 241737Z 2418/2518 22008KT P6SM VCSH BKN060 OVC090
      TEMPO 2422/2502 -SHRA OVC025
     FM250200 31008KT P6SM -RA OVC025
     FM251000 22006KT P6SM SCT025 BKN070=



000
FTUS45 KTFX 241737
TAFHLN
TAF
KHLN 241737Z 2418/2518 VRB06KT P6SM VCSH OVC045
      TEMPO 2422/2502 6SM -SHRA OVC035
     FM250200 28008KT P6SM -RA OVC025
      TEMPO 2508/2511 1SM -SNRA BR OVC010
     FM251100 27006KT P6SM OVC030=



000
FTUS45 KTFX 241716 AAA
TAFHLN
TAF AMD
KHLN 241716Z 2417/2512 27008KT P6SM -SHRA BKN030 OVC045
      TEMPO 2422/2502 6SM -SHRA OVC035
     FM250200 28008KT P6SM -RA OVC025
      TEMPO 2508/2511 1SM -SNRA BR OVC010
     FM251100 27006KT P6SM OVC030=



000
FTUS45 KTFX 241716 AAA
TAFHLN
TAF AMD
KHLN 241716Z 2417/2512 27008KT P6SM -SHRA BKN030 OVC045
      TEMPO 2422/2502 6SM -SHRA OVC035
     FM250200 28008KT P6SM -RA OVC025
      TEMPO 2508/2511 1SM -SNRA BR OVC010
     FM251100 27006KT P6SM OVC030=



000
FTUS45 KTFX 241136
TAFCTB
TAF
KCTB 241136Z 2412/2512 27008KT P6SM SCT070 BKN120
     FM241900 26017G25KT P6SM SCT050 BKN090
     FM250200 27012KT P6SM SCT060 BKN100=



000
FTUS45 KTFX 241136
TAFGTF
TAF
KGTF 241136Z 2412/2512 VRB05KT P6SM SCT050 BKN080
     FM241500 26007KT P6SM VCSH SCT040 BKN070
     FM241800 25010KT P6SM VCSH SCT035 BKN060 PROB30 2421/2502 -SHRA
      BKN035
     FM250300 27008KT P6SM BKN060=



000
FTUS45 KTFX 241136
TAFBZN
TAF
KBZN 241136Z 2412/2512 VRB05KT P6SM SCT070 BKN100
     FM241700 26007KT P6SM VCSH SCT050 BKN090
     FM242100 29010KT P6SM VCTS SCT035CB BKN060
      TEMPO 2421/2501 VRB15G30KT -TSRA BKN035CB
     FM250500 29008KT P6SM VCSH SCT025 BKN050=



000
FTUS45 KTFX 241136
TAFHLN
TAF
KHLN 241136Z 2412/2512 28006KT P6SM SCT080 BKN120
     FM241800 32010KT P6SM VCSH SCT040 BKN070
      TEMPO 2420/2424 VRB15G25KT -TSRA BKN040CB
     FM250000 28010KT P6SM SCT050 BKN080 PROB30 2500/2504 -SHRASN
      BKN050
     FM250400 28006KT P6SM BKN070=



000
FTUS45 KTFX 241136
TAFHVR
TAF
KHVR 241136Z 2412/2512 23006KT P6SM SCT080 BKN120
     FM241700 25008KT P6SM VCSH SCT050 BKN080
     FM242200 26010KT P6SM SCT040 BKN070 PROB30 2422/2503 -SHRA
      BKN040
     FM250300 25007KT P6SM BKN060=



000
FTUS45 KTFX 241136
TAFLWT
TAF
KLWT 241136Z 2412/2512 10006KT P6SM SCT080 BKN120
     FM241700 32008KT P6SM VCSH SCT060 BKN100
     FM242100 36012KT P6SM VCTS SCT040CB OVC070 PROB30 2422/2503
      VRB15G30KT -TSRA BKN040CB
     FM250300 31010KT P6SM VCSH SCT025 BKN050=



000
FTUS45 KTFX 240548 CCA
TAFHVR
TAF COR
KHVR 240548Z 2406/2506 09007KT P6SM VCSH SCT060 BKN100
     FM240800 VRB06KT P6SM SCT080 BKN130
     FM241900 28011KT P6SM VCSH SCT060 BKN090=



000
FTUS45 KTFX 240544 CCA
TAFLWT
TAF COR
KLWT 240544Z 2406/2506 09007KT P6SM VCSH SCT050 BKN090
     FM240800 VRB06KT P6SM SCT080 BKN130
     FM241900 33008KT P6SM VCSH SCT060 BKN100
     FM242100 36011KT P6SM VCSH SCT040 OVC070 PROB30 2422/2503
      VRB15G30KT -TSRA BKN035CB
     FM250300 32010KT P6SM VCSH SCT025 OVC050=



000
FTUS45 KTFX 240544 CCA
TAFLWT
TAF COR
KLWT 240544Z 2406/2506 09007KT P6SM VCSH SCT050 BKN090
     FM240800 VRB06KT P6SM SCT080 BKN130
     FM241900 33008KT P6SM VCSH SCT060 BKN100
     FM242100 36011KT P6SM VCSH SCT040 OVC070 PROB30 2422/2503
      VRB15G30KT -TSRA BKN035CB
     FM250300 32010KT P6SM VCSH SCT025 OVC050=



000
FTUS45 KTFX 240540
TAFHLN
TAF
KHLN 240540Z 2406/2506 VRB05KT P6SM SCT090 BKN130
     FM241400 28007KT P6SM VCSH SCT050 BKN080 PROB30 2416/2419 -SHRA
      BKN045
     FM241900 31011KT P6SM VCSH SCT040 OVC070 PROB30 2419/2424
      VRB15G25KT -TSRA BKN035CB
     FM250200 28010KT P6SM SCT050 BKN080=



000
FTUS45 KTFX 240540
TAFHVR
TAF
KHVR 240540Z 2406/2506 VRB04KT P6SM SCT110
     FM241100 24008KT P6SM SCT090 BKN130=



000
FTUS45 KTFX 240540
TAFLWT
TAF
KLWT 240540Z 2406/2506 09007KT P6SM VCSH SCT050 BKN090
     FM240800 VRB05KT P6SM SCT080 BKN130
     FM241700 34006KT P6SM SCT080 BKN120
     FM242100 36008KT P6SM VCSH SCT050 BKN080=



000
FTUS45 KTFX 240540
TAFBZN
TAF
KBZN 240540Z 2406/2506 29008KT P6SM VCTS SCT050CB BKN080
     FM240800 VRB05KT P6SM SCT070 BKN110
     FM241800 VRB06KT P6SM VCSH SCT050 BKN090 PROB30 2418/2422 -SHRA
      BKN040
     FM242200 32011KT P6SM -SHRA SCT035 OVC060 PROB30 2422/2503
      VRB15G30KT -TSRA BKN030CB
     FM250300 29010KT P6SM VCSH SCT025 OVC050=



000
FTUS45 KTFX 240540
TAFCTB
TAF
KCTB 240540Z 2406/2506 27010KT P6SM SCT080 BKN130
     FM241700 26015G24KT P6SM SCT060 BKN100
     FM250200 25015KT P6SM SCT080 BKN130=



000
FTUS45 KTFX 240540
TAFGTF
TAF
KGTF 240540Z 2406/2506 33010KT P6SM SCT060 BKN100
     FM240800 24008KT P6SM SCT080 BKN130
     FM241600 26010KT P6SM VCSH SCT060 BKN090
     FM241900 32011KT P6SM VCSH SCT050 OVC080 PROB30 2420/2501 -SHRA
      BKN040
     FM250200 29008KT P6SM SCT060 BKN090=



000
FTUS45 KTFX 240241 AAA
TAFGTF
TAF AMD
KGTF 240241Z 2403/2424 25008KT P6SM SCT070 BKN130
     FM242300 32010KT P6SM VCSH SCT070 BKN100=



000
FTUS45 KTFX 240241 AAA
TAFGTF
TAF AMD
KGTF 240241Z 2403/2424 25008KT P6SM SCT070 BKN130
     FM242300 32010KT P6SM VCSH SCT070 BKN100=



000
FTUS45 KTFX 232341
TAFLWT
TAF
KLWT 232341Z 2400/2424 VRB05KT P6SM SCT100
     FM241700 34006KT P6SM SCT080 BKN120
     FM242100 36008KT P6SM VCSH SCT050 BKN080=



000
FTUS45 KTFX 232341
TAFHVR
TAF
KHVR 232341Z 2400/2424 VRB04KT P6SM SCT110
     FM241100 24008KT P6SM SCT090 BKN130=



000
FTUS45 KTFX 232341
TAFBZN
TAF
KBZN 232341Z 2400/2424 27008KT P6SM SCT060 BKN090
      TEMPO 2400/2402 VRB15G22KT -SHRA BKN050
     FM240300 15005KT P6SM SCT120
     FM241900 28008KT P6SM SCT050 BKN090 PROB30 2421/2424 VRB15G25KT
      -TSRA BKN050CB=



000
FTUS45 KTFX 232341
TAFHLN
TAF
KHLN 232341Z 2400/2424 VRB03KT P6SM SCT090 BKN150
     FM241600 27009KT P6SM SCT060 BKN120
     FM242000 32008KT P6SM VCSH SCT050 BKN080 PROB30 2421/2424 -SHRA
      BKN040=



000
FTUS45 KTFX 232341
TAFGTF
TAF
KGTF 232341Z 2400/2424 24013G21KT P6SM SCT090 BKN150
     FM240200 22006KT P6SM BKN120
     FM241500 25009KT P6SM SCT070 BKN130
     FM242300 32010KT P6SM VCSH SCT070 BKN100=



000
FTUS45 KTFX 232341
TAFCTB
TAF
KCTB 232341Z 2400/2424 26015G20KT P6SM SCT090 BKN150
     FM240300 27010KT P6SM SCT080 BKN130
     FM241700 26015G24KT P6SM SCT060 BKN100=



000
FTUS45 KTFX 232341
TAFHVR
TAF
KHVR 232341Z 2400/2424 VRB04KT P6SM SCT110
     FM241100 24008KT P6SM SCT090 BKN130=



000
FTUS45 KTFX 232341
TAFLWT
TAF
KLWT 232341Z 2400/2424 VRB05KT P6SM SCT100
     FM241700 34006KT P6SM SCT080 BKN120
     FM242100 36008KT P6SM VCSH SCT050 BKN080=



000
FTUS45 KTFX 232341
TAFCTB
TAF
KCTB 232341Z 2400/2424 26015G20KT P6SM SCT090 BKN150
     FM240300 27010KT P6SM SCT080 BKN130
     FM241700 26015G24KT P6SM SCT060 BKN100=



000
FTUS45 KTFX 232341
TAFBZN
TAF
KBZN 232341Z 2400/2424 27008KT P6SM SCT060 BKN090
      TEMPO 2400/2402 VRB15G22KT -SHRA BKN050
     FM240300 15005KT P6SM SCT120
     FM241900 28008KT P6SM SCT050 BKN090 PROB30 2421/2424 VRB15G25KT
      -TSRA BKN050CB=



000
FTUS45 KTFX 232341
TAFHLN
TAF
KHLN 232341Z 2400/2424 VRB03KT P6SM SCT090 BKN150
     FM241600 27009KT P6SM SCT060 BKN120
     FM242000 32008KT P6SM VCSH SCT050 BKN080 PROB30 2421/2424 -SHRA
      BKN040=



000
FTUS45 KTFX 232341
TAFGTF
TAF
KGTF 232341Z 2400/2424 24013G21KT P6SM SCT090 BKN150
     FM240200 22006KT P6SM BKN120
     FM241500 25009KT P6SM SCT070 BKN130
     FM242300 32010KT P6SM VCSH SCT070 BKN100=



000
FTUS45 KTFX 232300 AAA
TAFBZN
TAF AMD
KBZN 232300Z 2323/2418 27008KT P6SM SCT060 BKN090
      TEMPO 2323/2401 VRB15G22KT -SHRA BKN050
     FM240200 15005KT P6SM BKN120=



000
FTUS45 KTFX 232300 AAA
TAFBZN
TAF AMD
KBZN 232300Z 2323/2418 27008KT P6SM SCT060 BKN090
      TEMPO 2323/2401 VRB15G22KT -SHRA BKN050
     FM240200 15005KT P6SM BKN120=



000
FTUS45 KTFX 231738
TAFGTF
TAF
KGTF 231738Z 2318/2418 20008KT P6SM SCT180
     FM232200 24010G20KT P6SM SCT180
     FM240200 22006KT P6SM BKN120=



000
FTUS45 KTFX 231738
TAFBZN
TAF
KBZN 231738Z 2318/2418 31006KT P6SM SCT045 BKN150
     FM232100 27008KT P6SM VCTS SCT060CB BKN090
     FM240200 15005KT P6SM BKN120=



000
FTUS45 KTFX 231738
TAFHVR
TAF
KHVR 231738Z 2318/2418 26006KT P6SM SCT180
     FM240100 14006KT P6SM BKN150=



000
FTUS45 KTFX 231738
TAFHLN
TAF
KHLN 231738Z 2318/2418 30006KT P6SM SCT150
     FM240200 20005KT P6SM OVC150
     FM241200 27006KT P6SM SCT035 OVC070 PROB30 2412/2418 6SM -SHRA
      BR OVC030=



000
FTUS45 KTFX 231738
TAFLWT
TAF
KLWT 231738Z 2318/2418 28006KT P6SM SCT150
     FM232100 34006KT P6SM SCT070 SCT150
     FM240000 VRB06KT P6SM BKN100
      TEMPO 2401/2405 P6SM -SHRA BKN050
     FM240600 30006KT P6SM SCT060 BKN120=



000
FTUS45 KTFX 231738
TAFCTB
TAF
KCTB 231738Z 2318/2418 22016G28KT P6SM BKN150
     FM240100 27010KT P6SM BKN180=



000
FTUS45 KTFX 231617 AAA
TAFCTB
TAF AMD
KCTB 231617Z 2316/2412 22010G20KT P6SM SCT090 BKN150
     FM240200 27008KT P6SM BKN120=



000
FTUS45 KTFX 231617 AAA
TAFCTB
TAF AMD
KCTB 231617Z 2316/2412 22010G20KT P6SM SCT090 BKN150
     FM240200 27008KT P6SM BKN120=



000
FTUS45 KTFX 231616 AAA
TAFHLN
TAF AMD
KHLN 231616Z 2316/2412 28010KT P6SM SCT150
     FM240100 28007KT P6SM BKN150=



000
FTUS45 KTFX 231616 AAA
TAFHLN
TAF AMD
KHLN 231616Z 2316/2412 28010KT P6SM SCT150
     FM240100 28007KT P6SM BKN150=



000
FTUS45 KTFX 231613 AAA
TAFBZN
TAF AMD
KBZN 231613Z 2316/2412 26006KT P6SM BKN015 OVC040
      TEMPO 2316/2319 SCT015 BKN040
     FM231900 26006KT P6SM SCT040 BKN090
     FM232100 27008KT P6SM VCTS SCT060CB BKN090
     FM240200 19005KT P6SM BKN120=



000
FTUS45 KTFX 231613 AAA
TAFBZN
TAF AMD
KBZN 231613Z 2316/2412 26006KT P6SM BKN015 OVC040
      TEMPO 2316/2319 SCT015 BKN040
     FM231900 26006KT P6SM SCT040 BKN090
     FM232100 27008KT P6SM VCTS SCT060CB BKN090
     FM240200 19005KT P6SM BKN120=



000
FTUS45 KTFX 231140
TAFHLN
TAF
KHLN 231140Z 2312/2412 26010KT P6SM SCT080 BKN150
      TEMPO 2313/2316 BKN080
     FM231600 32008KT P6SM SCT080 BKN150
     FM240100 28007KT P6SM BKN150=



000
FTUS45 KTFX 231140
TAFLWT
TAF
KLWT 231140Z 2312/2412 27008KT P6SM VCSH SCT060 BKN120
      TEMPO 2312/2315 -SHRA BKN060
     FM231500 33007KT P6SM BKN150
     FM240300 14006KT P6SM BKN120=



000
FTUS45 KTFX 231140
TAFBZN
TAF
KBZN 231140Z 2312/2412 VRB05KT P6SM VCSH SCT030 BKN060
      TEMPO 2312/2315 BKN030
     FM231500 26006KT P6SM SCT060 BKN120
     FM232100 27008KT P6SM VCTS SCT060CB BKN090
     FM240200 19005KT P6SM BKN120=



000
FTUS45 KTFX 231140
TAFGTF
TAF
KGTF 231140Z 2312/2412 25007KT P6SM SCT080 BKN150
     FM231800 23010KT P6SM SCT150
     FM240200 22006KT P6SM BKN120=



000
FTUS45 KTFX 231140
TAFCTB
TAF
KCTB 231140Z 2312/2412 34008KT P6SM SCT090 BKN150
      TEMPO 2312/2315 BKN080
     FM231500 24010KT P6SM BKN150
     FM240200 27008KT P6SM BKN120=



000
FTUS45 KTFX 231140
TAFHVR
TAF
KHVR 231140Z 2312/2412 VRB06KT P6SM VCSH SCT070 BKN150
      TEMPO 2312/2314 BKN070
     FM231400 25008KT P6SM BKN150
     FM240300 21006KT P6SM BKN120=



000
FTUS45 KTFX 231140
TAFHVR
TAF
KHVR 231140Z 2312/2412 VRB06KT P6SM VCSH SCT070 BKN150
      TEMPO 2312/2314 BKN070
     FM231400 25008KT P6SM BKN150
     FM240300 21006KT P6SM BKN120=



000
FTUS45 KTFX 231140
TAFGTF
TAF
KGTF 231140Z 2312/2412 25007KT P6SM SCT080 BKN150
     FM231800 23010KT P6SM SCT150
     FM240200 22006KT P6SM BKN120=



000
FTUS45 KTFX 231140
TAFHLN
TAF
KHLN 231140Z 2312/2412 26010KT P6SM SCT080 BKN150
      TEMPO 2313/2316 BKN080
     FM231600 32008KT P6SM SCT080 BKN150
     FM240100 28007KT P6SM BKN150=



000
FTUS45 KTFX 231140
TAFBZN
TAF
KBZN 231140Z 2312/2412 VRB05KT P6SM VCSH SCT030 BKN060
      TEMPO 2312/2315 BKN030
     FM231500 26006KT P6SM SCT060 BKN120
     FM232100 27008KT P6SM VCTS SCT060CB BKN090
     FM240200 19005KT P6SM BKN120=



000
FTUS45 KTFX 231140
TAFLWT
TAF
KLWT 231140Z 2312/2412 27008KT P6SM VCSH SCT060 BKN120
      TEMPO 2312/2315 -SHRA BKN060
     FM231500 33007KT P6SM BKN150
     FM240300 14006KT P6SM BKN120=



000
FTUS45 KTFX 231140
TAFCTB
TAF
KCTB 231140Z 2312/2412 34008KT P6SM SCT090 BKN150
      TEMPO 2312/2315 BKN080
     FM231500 24010KT P6SM BKN150
     FM240200 27008KT P6SM BKN120=



000
FTUS45 KTFX 230536
TAFBZN
TAF
KBZN 230536Z 2306/2406 VRB05KT P6SM VCFG SCT025 BKN040
     FM231600 VRB05KT P6SM SCT060 BKN150=



000
FTUS45 KTFX 230536
TAFGTF
TAF
KGTF 230536Z 2306/2406 21010KT P6SM BKN060
     FM230900 24010KT P6SM SCT060 BKN150
     FM231800 24010KT P6SM SCT150=



000
FTUS45 KTFX 230536
TAFHVR
TAF
KHVR 230536Z 2306/2406 24010KT P6SM -SHRA BKN060
     FM231200 24010KT P6SM SCT090 BKN180
     FM231800 24010KT P6SM SCT180=



000
FTUS45 KTFX 230536
TAFLWT
TAF
KLWT 230536Z 2306/2406 14010KT 6SM -RA BR OVC050
     FM231200 27010KT P6SM BKN060
     FM231500 VRB05KT P6SM SCT180=



000
FTUS45 KTFX 230536
TAFHLN
TAF
KHLN 230536Z 2306/2406 26010KT P6SM OVC090
     FM231400 VRB05KT P6SM VCFG SCT090
     FM231600 VRB05KT P6SM SCT150=



000
FTUS45 KTFX 230536
TAFCTB
TAF
KCTB 230536Z 2306/2406 25015KT P6SM SCT080 SCT180
     FM230900 27010KT P6SM SCT180
     FM231700 26010G20KT P6SM BKN150
     FM240200 27010KT P6SM SCT150=



000
FTUS45 KTFX 222320
TAFBZN
TAF
KBZN 222320Z 2300/2324 24007KT P6SM VCTS FEW060CB BKN090
      TEMPO 2300/2304 VRB15G30KT -TSRA BKN060CB
     FM230400 32009KT P6SM VCSH BKN060
      TEMPO 2304/2308 -SHRA BKN040
     FM230900 VRB06KT P6SM VCFG SCT025 BKN040
     FM232000 VRB06KT P6SM SCT060 BKN150=



000
FTUS45 KTFX 222320
TAFLWT
TAF
KLWT 222320Z 2300/2324 09008KT P6SM VCTS SCT060CB BKN120
      TEMPO 2302/2306 VRB15G35KT P6SM -TSRA BKN060CB
     FM230600 12008KT 6SM -RA BR OVC040
     FM231200 27010KT P6SM BKN060
     FM231500 30006KT P6SM SCT180=



000
FTUS45 KTFX 222320
TAFHLN
TAF
KHLN 222320Z 2300/2324 VRB06KT P6SM VCTS SCT060CB BKN100
      TEMPO 2300/2304 VRB15G35KT -TSRA BKN060CB
     FM230400 27012KT P6SM OVC090
     FM231400 28006KT P6SM SCT090=



000
FTUS45 KTFX 222320
TAFCTB
TAF
KCTB 222320Z 2300/2324 26015G25KT P6SM VCSH SCT070 BKN120
     FM230300 25015KT P6SM SCT080 SCT180
     FM230900 27008KT P6SM SCT180
     FM231700 26008KT P6SM BKN150=



000
FTUS45 KTFX 222320
TAFGTF
TAF
KGTF 222320Z 2300/2324 VRB06KT P6SM SCT070 BKN100
     FM230100 26012KT P6SM VCTS SCT060CB BKN100
      TEMPO 2301/2305 VRB15G35KT P6SM -TSRA BKN060CB
     FM230500 27015KT P6SM VCSH BKN060
      TEMPO 2305/2308 -SHRA BKN040
     FM230900 24008KT P6SM SCT060 BKN150
     FM231800 24007KT P6SM SCT150=



000
FTUS45 KTFX 222320
TAFHVR
TAF
KHVR 222320Z 2300/2324 14008KT P6SM SCT200
     FM230400 12008KT P6SM VCTS SCT070CB BKN100
      TEMPO 2304/2308 VRB15G30KT -TSRA BKN060CB
     FM230800 28008KT P6SM -SHRA BKN060
     FM231200 24010KT P6SM SCT090 BKN180
     FM231800 24007KT P6SM SCT180=



000
FTUS45 KTFX 222129 AAB
TAFHLN
TAF AMD
KHLN 222129Z 2221/2318 VRB06KT P6SM VCTS SCT070CB BKN120
      TEMPO 2222/2302 VRB15G35KT -TSRA BKN060CB
     FM230300 27008KT P6SM OVC090
      TEMPO 2303/2307 -RA OVC060
     FM231400 28006KT P6SM SCT090=



000
FTUS45 KTFX 221952 AAA
TAFHLN
TAF AMD
KHLN 221952Z 2220/2318 VRB06KT P6SM VCTS SCT070CB BKN120
      TEMPO 2223/2303 VRB15G35KT -TSRA BKN060CB
     FM230300 27008KT P6SM OVC090
      TEMPO 2303/2307 -RA OVC060
     FM231400 28006KT P6SM SCT090=



000
FTUS45 KTFX 221739
TAFHVR
TAF
KHVR 221739Z 2218/2318 14008KT P6SM SCT200
     FM230300 12008KT P6SM VCTS SCT070CB BKN100 PROB30 2303/2306
      VRB15G35KT P6SM -TSRA BKN060CB
     FM230600 28008KT P6SM -SHRA BKN060
     FM231100 24010KT P6SM SCT090 BKN180=



000
FTUS45 KTFX 221739
TAFBZN
TAF
KBZN 221739Z 2218/2318 VRB06KT P6SM SCT150
     FM222000 VRB06KT P6SM SCT070 BKN120
     FM230000 24007KT P6SM VCTS FEW060CB BKN090
      TEMPO 2300/2304 -TSRA BKN060CB
     FM230500 23006KT P6SM VCSH BKN060=



000
FTUS45 KTFX 221739
TAFGTF
TAF
KGTF 221739Z 2218/2318 29008KT P6SM SCT150
     FM222200 26008KT P6SM SCT100 BKN150
     FM230000 26008KT P6SM SCT070 BKN100
      TEMPO 2300/2304 VRB15G35KT P6SM -TSRA BKN060CB
     FM230600 27008KT P6SM SCT100 SCT180=



000
FTUS45 KTFX 221739
TAFLWT
TAF
KLWT 221739Z 2218/2318 35006KT P6SM BKN100
     FM230000 09008KT P6SM VCTS SCT070CB BKN120
      TEMPO 2303/2306 VRB15G35KT P6SM -TSRA BKN060CB
     FM230600 12008KT 6SM -RA BR OVC040
     FM231200 27010KT P6SM BKN060
     FM231500 30006KT P6SM SCT180=



000
FTUS45 KTFX 221739
TAFHLN
TAF
KHLN 221739Z 2218/2318 VRB05KT P6SM SCT090 SCT150
     FM222200 33006KT P6SM SCT070 BKN120
      TEMPO 2223/2303 VRB15G35KT -TSRA BKN060CB
     FM230300 27008KT P6SM OVC090
      TEMPO 2303/2307 -RA OVC060
     FM231400 28006KT P6SM SCT090=



000
FTUS45 KTFX 221739
TAFCTB
TAF
KCTB 221739Z 2218/2318 25010G20KT P6SM BKN180
     FM222100 24012G22KT P6SM VCSH SCT070 BKN150
     FM230300 25015KT P6SM SCT080 SCT180
     FM230900 27008KT P6SM SCT180=



000
FTUS45 KTFX 221154
TAFLWT
TAF
KLWT 221154Z 2212/2312 12008KT P6SM SCT100 BKN150
     FM222000 10011KT P6SM SCT060 BKN120
     FM230000 12008KT P6SM SCT050 BKN080 PROB30 2300/2305 -TSRA
      BKN050CB
     FM230500 19008KT P6SM VCSH BKN060=



000
FTUS45 KTFX 221154
TAFGTF
TAF
KGTF 221154Z 2212/2312 22009KT P6SM SCT090 BKN150
     FM222000 35007KT P6SM SCT060 BKN090
     FM230000 25007KT P6SM VCTS FEW050CB BKN080 PROB30 2300/2304
      -TSRA BKN050CB
     FM230400 25007KT P6SM VCSH BKN060=



000
FTUS45 KTFX 221154
TAFHLN
TAF
KHLN 221154Z 2212/2312 VRB05KT P6SM SCT090 BKN150
     FM222100 25007KT P6SM SCT050 BKN090
     FM230100 28007KT P6SM VCTS FEW060CB BKN090 PROB30 2301/2306
      -TSRA BKN060CB
     FM230600 28007KT P6SM VCSH BKN060=



000
FTUS45 KTFX 221154
TAFBZN
TAF
KBZN 221154Z 2212/2312 29005KT P6SM FEW090 BKN150
     FM222000 25007KT P6SM SCT070 BKN120
     FM230000 24007KT P6SM VCTS FEW060CB BKN090 PROB30 2300/2305
      -TSRA BKN060CB
     FM230500 23006KT P6SM VCSH BKN060=



000
FTUS45 KTFX 221154
TAFLWT
TAF
KLWT 221154Z 2212/2312 12008KT P6SM SCT100 BKN150
     FM222000 10011KT P6SM SCT060 BKN120
     FM230000 12008KT P6SM SCT050 BKN080 PROB30 2300/2305 -TSRA
      BKN050CB
     FM230500 19008KT P6SM VCSH BKN060=



000
FTUS45 KTFX 221154
TAFGTF
TAF
KGTF 221154Z 2212/2312 22009KT P6SM SCT090 BKN150
     FM222000 35007KT P6SM SCT060 BKN090
     FM230000 25007KT P6SM VCTS FEW050CB BKN080 PROB30 2300/2304
      -TSRA BKN050CB
     FM230400 25007KT P6SM VCSH BKN060=



000
FTUS45 KTFX 221154
TAFCTB
TAF
KCTB 221154Z 2212/2312 VRB05KT P6SM SCT080 BKN150
     FM221800 24012KT P6SM BKN080
     FM230000 26013KT P6SM VCSH SCT050 BKN080
     FM230600 27012KT P6SM BKN080=



000
FTUS45 KTFX 221154
TAFHVR
TAF
KHVR 221154Z 2212/2312 08007KT P6SM SCT090 BKN150
     FM221900 12010KT P6SM SCT070 BKN120
     FM230200 08010KT P6SM VCSH SCT040 BKN060=



000
FTUS45 KTFX 221154
TAFCTB
TAF
KCTB 221154Z 2212/2312 VRB05KT P6SM SCT080 BKN150
     FM221800 24012KT P6SM BKN080
     FM230000 26013KT P6SM VCSH SCT050 BKN080
     FM230600 27012KT P6SM BKN080=



000
FTUS45 KTFX 221154
TAFBZN
TAF
KBZN 221154Z 2212/2312 29005KT P6SM FEW090 BKN150
     FM222000 25007KT P6SM SCT070 BKN120
     FM230000 24007KT P6SM VCTS FEW060CB BKN090 PROB30 2300/2305
      -TSRA BKN060CB
     FM230500 23006KT P6SM VCSH BKN060=



000
FTUS45 KTFX 221154
TAFHLN
TAF
KHLN 221154Z 2212/2312 VRB05KT P6SM SCT090 BKN150
     FM222100 25007KT P6SM SCT050 BKN090
     FM230100 28007KT P6SM VCTS FEW060CB BKN090 PROB30 2301/2306
      -TSRA BKN060CB
     FM230600 28007KT P6SM VCSH BKN060=



000
FTUS45 KTFX 221154
TAFHVR
TAF
KHVR 221154Z 2212/2312 08007KT P6SM SCT090 BKN150
     FM221900 12010KT P6SM SCT070 BKN120
     FM230200 08010KT P6SM VCSH SCT040 BKN060=



000
FTUS45 KTFX 220524
TAFBZN
TAF
KBZN 220524Z 2206/2306 15005KT P6SM FEW090 SCT150
     FM230100 VRB05KT P6SM VCTS FEW060CB BKN150=



000
FTUS45 KTFX 220524
TAFLWT
TAF
KLWT 220524Z 2206/2306 10010KT P6SM SCT150
     FM230200 VRB05KT P6SM VCTS SCT060CB BKN150=



000
FTUS45 KTFX 220524
TAFHVR
TAF
KHVR 220524Z 2206/2306 09010KT P6SM SCT090
     FM221900 12010KT P6SM SCT090=



000
FTUS45 KTFX 220524
TAFCTB
TAF
KCTB 220524Z 2206/2306 VRB05KT P6SM SCT080
     FM221900 22010KT P6SM BKN080
     FM230000 26010KT P6SM VCSH SCT050 BKN080=



000
FTUS45 KTFX 220524
TAFGTF
TAF
KGTF 220524Z 2206/2306 VRB05KT P6SM FEW090 SCT150
     FM230200 VRB05KT P6SM VCTS FEW060CB BKN150=



000
FTUS45 KTFX 220524
TAFHLN
TAF
KHLN 220524Z 2206/2306 VRB06KT P6SM SCT090
     FM230000 VRB05KT P6SM VCTS FEW060CB BKN150=



    US Dept of Commerce
    National Oceanic and Atmospheric Administration
    National Weather Service
    1325 East West Highway
    Silver Spring, MD 20910
    Page Author: NWS Internet Services Team
Disclaimer
Information Quality
Credits
Glossary
Privacy Policy
Freedom of Information Act (FOIA)
About Us
Career Opportunities